Latest Coastal Weather Observations for Avalon

IDV60701

Issued at 4:32 am EST Friday 23 June 2017 (issued every 10 minutes, with the page automatically refreshed every 10 minutes)

About coastal observations | Map of coastal stations | Coastal observations for VIC | Marine services | Other Formats
Station Details ID: 087113 Name: AVALON AIRPORT Lat: -38.03 Lon: 144.48 Height: 10.6 m
Data from the previous 72 hours. | See also: Recent months at Avalon
Date/Time
EST
Temp
°C
Wind Pressure Rain since
9am
mm
Weather Cloud Vis
km
Sea
Height
m
Swell
Dir  Spd
kts
Gust
kts
hPa Trend Height
m
Period
s
Dir
23/04:30am 10.1 NNW 9 14 1018.4 - 0.0 - Cloudy 10 - - - -
23/04:00am 10.6 NNW 11 14 1018.6 - 0.0 - - 10 - - - -
23/03:30am 10.6 NW 12 15 1018.9 - 0.0 - - 10 - - - -
23/03:00am 10.6 NNW 13 18 1018.9 - 0.0 - Mostly cloudy 10 - - - -
23/02:30am 10.5 NNW 12 17 1019.4 - 0.0 - - 10 - - - -
23/02:00am 10.4 NNW 9 13 1019.6 - 0.0 - - 10 - - - -
23/01:30am 9.7 NNE 2 5 1019.8 - 0.0 - - 10 - - - -
23/01:00am 10.0 NE 5 7 1020.4 - 0.0 - - 10 - - - -
23/12:30am 10.9 N 7 11 1020.4 - 0.0 - - 10 - - - -
23/12:00am 8.8 NE 3 6 1020.9 - 0.0 - Mostly cloudy 10 - - - -
 
Date/Time
EST
Temp
°C
Wind Pressure Rain since
9am
mm
Weather Cloud Vis
km
Sea
Height
m
Swell
Dir  Spd
kts
Gust
kts
hPa Trend Height
m
Period
s
Dir
22/11:30pm 9.2 NNE 4 9 1021.3 - 0.0 - - 10 - - - -
22/11:00pm 10.5 N 7 11 1021.7 - 0.0 - - 10 - - - -
22/10:30pm 9.6 ENE 4 6 1022.0 - 0.0 - Partly cloudy 10 - - - -
22/10:00pm 10.8 NNW 6 9 1022.3 - 0.0 - Cloudy 10 - - - -
22/09:30pm 10.8 N 5 7 1022.5 - 0.0 - Cloudy 10 - - - -
22/09:00pm 11.3 NNE 5 8 1022.6 - 0.0 - Cloudy 10 - - - -
22/08:30pm 12.0 NNW 8 10 1022.8 - 0.0 - Cloudy 10 - - - -
22/08:00pm 11.6 N 9 10 1022.8 - 0.0 - Cloudy 10 - - - -
22/07:30pm 11.7 N 8 9 1023.2 - 0.0 - Partly cloudy 10 - - - -
22/07:00pm 11.1 N 6 7 1023.4 - 0.0 - Partly cloudy 10 - - - -
22/06:30pm 11.2 N 7 7 1023.5 - 0.0 - Cloudy 10 - - - -
22/06:00pm 11.3 NNW 8 9 1023.3 - 0.0 - Cloudy 10 - - - -
22/05:30pm 10.8 NNW 9 9 1023.2 - 0.0 - Cloudy 10 - - - -
22/05:00pm 12.1 NNW 8 9 1023.2 - 0.0 - Partly cloudy 10 - - - -
22/04:30pm 13.0 NNW 8 10 1023.4 - 0.0 - Cloudy 10 - - - -
22/04:00pm 13.1 NNW 6 8 1023.7 - 0.0 - Cloudy 10 - - - -
22/03:30pm 13.0 N 4 5 1024.0 - 0.0 - Cloudy 10 - - - -
22/03:00pm 12.9 ENE 2 5 1024.4 - 0.0 - Cloudy 10 - - - -
22/02:30pm 12.7 E 3 4 1024.7 - 0.0 - Partly cloudy 10 - - - -
22/02:00pm 12.9 SE 3 5 1025.1 - 0.0 - Partly cloudy 10 - - - -
22/01:30pm 13.1 SSE 4 5 1025.4 - 0.0 - Cloudy 10 - - - -
22/01:00pm 12.6 SE 4 5 1025.7 - 0.0 - Partly cloudy 10 - - - -
22/12:30pm 12.9 CALM 0 0 1026.0 - 0.0 - Partly cloudy 10 - - - -
22/12:00pm 12.9 CALM 0 0 1026.5 - 0.0 - Mostly cloudy 10 - - - -
22/11:30am 11.9 ESE 1 4 1026.8 - 0.0 - Partly cloudy 10 - - - -
22/11:00am 10.7 S 5 6 1027.4 - 0.0 - Cloudy 10 - - - -
22/10:30am 10.5 SW 6 8 1027.9 - 0.0 - Cloudy 10 - - - -
22/10:00am 9.5 SSE 4 5 1027.5 - 0.0 - Cloudy 10 - - - -
22/09:30am 8.7 SSE 4 6 1027.8 - 0.0 - Cloudy 10 - - - -
22/09:00am 7.7 ESE 3 4 1027.7 - 0.0 - Cloudy 10 - - - -
22/08:30am 7.4 WNW 1 5 1027.7 - 0.0 - Cloudy 10 - - - -
22/08:00am 7.1 W 3 6 1028.0 - 0.0 - Cloudy 10 - - - -
22/07:30am 6.6 N 3 4 1027.8 - 0.0 - Cloudy 10 - - - -
22/07:00am 6.7 NNE 5 6 1027.6 - 0.0 - Cloudy 10 - - - -
22/06:30am 6.6 CALM 0 0 1027.4 - 0.0 - Cloudy 10 - - - -
22/06:00am 6.0 CALM 0 0 1027.4 - 0.0 - Mostly cloudy 10 - - - -
22/05:30am 6.5 NNW 4 6 1027.4 - 0.0 - Cloudy 10 - - - -
22/05:00am 7.0 CALM 0 0 1027.4 - 0.0 - Cloudy 10 - - - -
22/04:30am 6.9 WNW 3 4 1027.6 - 0.0 - Cloudy 10 - - - -
22/04:00am 6.5 NNW 5 6 1027.6 - 0.0 - Cloudy 10 - - - -
22/03:30am 7.3 WSW 1 5 1027.7 - 0.0 - Partly cloudy 10 - - - -
22/03:00am 8.2 NE 3 4 1027.5 - 0.0 - Partly cloudy 10 - - - -
22/02:30am 8.7 CALM 0 0 1027.8 - 0.0 - Cloudy 10 - - - -
22/02:00am 8.4 CALM 0 3 1028.1 - 0.0 - Cloudy 10 - - - -
22/01:30am 8.4 NW 2 5 1028.1 - 0.0 - Cloudy 10 - - - -
22/01:00am 8.8 CALM 0 0 1028.3 - 0.0 - Cloudy 10 - - - -
22/12:30am 8.9 CALM 0 0 1028.5 - 0.0 - Cloudy 10 - - - -
22/12:00am 8.9 CALM 0 0 1028.7 - 0.0 - Cloudy 10 - - - -
 
Date/Time
EST
Temp
°C
Wind Pressure Rain since
9am
mm
Weather Cloud Vis
km
Sea
Height
m
Swell
Dir  Spd
kts
Gust
kts
hPa Trend Height
m
Period
s
Dir
21/11:30pm 8.9 CALM 0 0 1028.8 - 0.0 - Cloudy 10 - - - -
21/11:00pm 8.9 SSW 2 5 1029.1 - 0.0 - Cloudy 10 - - - -
21/10:30pm 9.2 N 3 3 1029.2 - 0.0 - Cloudy 10 - - - -
21/10:00pm 9.3 N 5 6 1029.4 - 0.0 - Cloudy 10 - - - -
21/09:30pm 9.3 CALM 0 0 1029.6 - 0.0 - Cloudy 10 - - - -
21/09:00pm 9.3 CALM 0 0 1029.6 - 0.0 - Cloudy 10 - - - -
21/08:30pm 9.4 CALM 0 0 1029.6 - 0.0 - Cloudy 10 - - - -
21/08:00pm 9.9 CALM 0 0 1029.6 - 0.0 - Cloudy 10 - - - -
21/07:30pm 10.5 CALM 0 0 1029.5 - 0.0 - Cloudy 10 - - - -
21/07:00pm 10.4 CALM 0 0 1029.3 - 0.0 - Cloudy 10 - - - -
21/06:30pm 10.7 SSE 3 4 1029.0 - 0.0 - Cloudy 10 - - - -
21/06:00pm 10.8 SSE 4 5 1028.6 - 0.0 - Cloudy 10 - - - -
21/05:30pm 11.1 S 6 7 1028.6 - 0.0 - Cloudy 10 - - - -
21/05:00pm 11.4 SSW 5 7 1028.4 - 0.0 - Partly cloudy 10 - - - -
21/04:30pm 11.9 SSE 4 5 1028.5 - 0.0 - Partly cloudy 10 - - - -
21/04:00pm 12.5 SSE 5 7 1028.3 - 0.0 - Cloudy 10 - - - -
21/03:30pm 12.9 SSE 5 6 1028.2 - 0.0 - Partly cloudy 10 - - - -
21/03:00pm 13.0 SSW 6 7 1028.3 - 0.0 - Cloudy 10 - - - -
21/02:30pm 13.2 SSW 4 6 1028.3 - 0.0 - Cloudy 10 - - - -
21/02:00pm 13.3 SSW 5 6 1028.4 - 0.0 - Partly cloudy 10 - - - -
21/01:30pm 13.3 SSW 5 5 1028.4 - 0.0 - Partly cloudy 10 - - - -
21/01:00pm 13.1 SW 5 6 1028.5 - 0.0 - Cloudy 10 - - - -
21/12:30pm 13.1 SW 7 8 1028.6 - 0.0 - Cloudy 10 - - - -
21/12:00pm 12.6 SW 7 9 1028.8 - 0.0 - Cloudy 10 - - - -
21/11:30am 12.7 SW 7 10 1029.1 - 0.0 - Partly cloudy 10 - - - -
21/11:00am 13.4 SW 6 8 1029.2 - 0.0 - Partly cloudy 10 - - - -
21/10:30am 12.5 W 5 6 1029.2 - 0.0 - Partly cloudy 10 - - - -
21/10:00am 11.8 W 6 8 1029.1 - 0.0 - Partly cloudy 10 - - - -
21/09:30am 11.1 W 8 11 1029.0 - 0.0 - Cloudy 10 - - - -
21/09:00am 10.9 WNW 7 9 1028.7 - 0.6 - Cloudy 10 - - - -
21/08:30am 10.5 WNW 8 9 1028.3 - 0.6 - Cloudy 10 - - - -
21/08:00am 10.4 NW 8 10 1028.0 - 0.6 - Cloudy 10 - - - -
21/07:30am 10.4 WNW 7 8 1027.7 - 0.6 - Partly cloudy 10 - - - -
21/07:00am 10.3 WNW 6 8 1027.6 - 0.6 - Cloudy 10 - - - -
21/06:35am 10.3 NW 8 9 1027.2 - 0.6 - Cloudy 10 - - - -
21/06:30am 10.3 NW 7 9 1027.1 - 0.6 - Cloudy 9 - - - -
21/06:07am 10.5 NW 7 8 1026.9 - 0.4 - Partly cloudy 6 - - - -
21/06:00am 10.5 WNW 7 8 1026.9 - 0.4 Drizzle Cloudy 7 - - - -
21/05:54am 10.5 WNW 7 8 1026.8 - 0.4 - Partly cloudy 7 - - - -
21/05:36am 10.5 W 6 8 1026.6 - 0.4 - Partly cloudy 5 - - - -
21/05:30am 10.5 W 6 7 1026.6 - 0.4 - Partly cloudy 5 - - - -
21/05:02am 10.8 WSW 7 9 1026.2 - 0.0 - Partly cloudy 6 - - - -
21/05:00am 10.9 WSW 7 9 1026.2 - 0.0 - Partly cloudy 7 - - - -
21/04:30am 11.1 W 6 8 1026.0 - 0.0 - Cloudy 10 - - - -
21/04:09am 11.3 W 9 13 1025.9 - 0.0 - Partly cloudy 10 - - - -
21/04:00am 11.6 WSW 11 14 1025.8 - 0.0 - Partly cloudy 10 - - - -
21/03:30am 10.9 SSE 6 8 1025.6 - 0.0 - Cloudy 10 - - - -
21/03:00am 10.3 S 7 10 1025.4 - 0.0 - Mostly cloudy 10 - - - -
21/02:30am 9.2 N 9 10 1024.7 - 0.0 - Partly cloudy 10 - - - -
21/02:00am 9.6 N 9 11 1024.7 - 0.0 - Partly cloudy 10 - - - -
21/01:30am 9.9 NNW 12 15 1024.5 - 0.0 - - 10 - - - -
21/01:00am 9.4 N 14 16 1024.4 - 0.0 - - 10 - - - -
21/12:30am 10.0 N 11 13 1024.8 - 0.0 - - 10 - - - -
21/12:00am 9.9 N 8 10 1024.9 - 0.0 - - 10 - - - -
 
Date/Time
EST
Temp
°C
Wind Pressure Rain since
9am
mm
Weather Cloud Vis
km
Sea
Height
m
Swell
Dir  Spd
kts
Gust
kts
hPa Trend Height
m
Period
s
Dir
20/11:30pm 10.5 N 9 11 1024.8 - 0.0 - Partly cloudy 10 - - - -
20/11:00pm 11.1 N 11 15 1024.9 - 0.0 - Partly cloudy 10 - - - -
20/10:30pm 11.1 N 13 16 1024.8 - 0.0 - - 10 - - - -
20/10:00pm 11.3 N 14 18 1024.6 - 0.0 - - 10 - - - -
20/09:30pm 11.3 N 14 17 1024.7 - 0.0 - - 10 - - - -
20/09:00pm 11.1 N 12 15 1024.9 - 0.0 - - 10 - - - -
20/08:30pm 10.6 N 11 13 1025.1 - 0.0 - - 10 - - - -
20/08:00pm 10.5 N 9 12 1025.2 - 0.0 - - 10 - - - -
20/07:30pm 10.6 NNE 8 9 1025.2 - 0.0 - - 10 - - - -
20/07:00pm 10.4 NNE 8 10 1025.2 - 0.0 - - 10 - - - -
20/06:30pm 11.3 NNE 8 10 1024.9 - 0.0 - - 10 - - - -
20/06:00pm 11.5 N 9 11 1024.7 - 0.0 - - 10 - - - -
20/05:30pm 12.1 N 8 11 1024.5 - 0.0 - - 10 - - - -
20/05:00pm 12.6 N 8 9 1024.6 - 0.0 - - 10 - - - -
20/04:30pm 14.1 NNW 10 14 1024.3 - 0.0 - - 10 - - - -
20/04:00pm 15.4 NNW 11 15 1024.2 - 0.0 - - 10 - - - -
20/03:30pm 16.0 NNW 12 15 1024.0 - 0.0 - - 10 - - - -
20/03:00pm 16.7 NW 12 16 1023.7 - 0.0 - - 10 - - - -
20/02:30pm 16.7 NNW 11 13 1023.9 - 0.0 - - 10 - - - -
20/02:00pm 16.6 NNW 12 16 1024.0 - 0.0 - - 10 - - - -
20/01:30pm 16.9 NNW 11 16 1024.1 - 0.0 - - 10 - - - -
20/01:00pm 16.6 NNW 11 14 1024.5 - 0.0 - - 10 - - - -
20/12:30pm 16.3 NNW 12 17 1024.9 - 0.0 - - 10 - - - -
20/12:00pm 15.8 N 11 14 1025.6 - 0.0 - - 10 - - - -
20/11:30am 15.1 N 11 14 1026.1 - 0.0 - - 10 - - - -
20/11:00am 14.8 N 9 11 1026.5 - 0.0 - - 10 - - - -
20/10:30am 13.5 N 9 12 1026.9 - 0.0 - - 10 - - - -
20/10:00am 11.5 N 7 8 1027.1 - 0.0 - - 10 - - - -
20/09:30am 10.3 N 5 7 1027.3 - 0.0 - - 10 - - - -
20/09:00am 8.5 N 5 6 1027.4 - 0.0 - - 10 - - - -
20/08:30am 6.4 N 6 7 1027.7 - 0.0 - - 10 - - - -
20/08:00am 5.1 N 6 7 1027.6 - 0.0 - - 10 - - - -
20/07:30am 4.4 N 7 8 1027.6 - 0.0 - - 10 - - - -
20/07:00am 5.0 N 7 8 1027.4 - 0.0 - - 10 - - - -
20/06:30am 5.4 N 8 8 1027.3 - 0.0 - - 10 - - - -
20/06:00am 6.6 NNW 7 9 1027.2 - 0.0 - - 10 - - - -
20/05:30am 7.5 NNW 6 8 1027.1 - 0.0 - - 10 - - - -
20/05:00am 8.7 NNW 9 10 1027.1 - 0.0 - Partly cloudy 10 - - - -

Other Formats:

Comma delimited format used in spreadsheet applications
http://www.bom.gov.au/fwo/IDV60701/IDV60701.94854.axf

JavaScript Object Notation format (JSON) in row-major order
http://www.bom.gov.au/fwo/IDV60701/IDV60701.94854.json